Euskara    
Meteorología y climatología de Navarra
Datos de la estación - Meteo Navarra

Estación de Aoiz GN

Altitud 534 m.


Datos desde el 18/10/2020 hasta el 19/10/2020 en horario solar
Los datos son PROVISIONALES

Anterior Página 1 de 1 Siguiente Descargar: Formato para Excel 2000 o superior   Formato csv   Formato para OpenOffice Calc
Fecha Temperatura Humedad relativa Radiación global Insolación Precipitación Vel. viento 10 m Vel. viento 10 m Dir. viento 10 m
°C % W/m² s l/m² m/s km/h °
18/10/2020 0:00 7.1 87 0.0 0 0.0 0.9 3.1 324
18/10/2020 0:10 7.1 87 0.0 0 0.0 0.9 3.3 348
18/10/2020 0:20 7.0 88 0.0 0 0.0 0.8 2.8 35
18/10/2020 0:30 6.8 88 0.0 0 0.0 0.7 2.6 356
18/10/2020 0:40 6.9 88 0.0 0 0.0 2.4 8.6 9
18/10/2020 0:50 6.8 88 0.0 0 0.0 1.0 3.7 354
18/10/2020 1:00 6.6 88 0.0 0 0.0 1.1 3.9 316
18/10/2020 1:10 6.6 87 0.0 0 0.0 1.3 4.6 306
18/10/2020 1:20 6.4 88 0.0 0 0.0 1.3 4.6 343
18/10/2020 1:30 6.4 89 0.0 0 0.0 2.0 7.1 357
18/10/2020 1:40 6.4 87 0.0 0 0.0 0.7 2.5 350
18/10/2020 1:50 6.2 87 0.0 0 0.0 0.8 2.7 262
18/10/2020 2:00 5.1 90 0.0 0 0.0 0.5 1.9 251
18/10/2020 2:10 5.6 91 0.0 0 0.0 1.1 4.0 345
18/10/2020 2:20 5.8 89 0.0 0 0.0 2.0 7.1 12
18/10/2020 2:30 5.7 88 0.0 0 0.0 2.3 8.2 22
18/10/2020 2:40 5.4 88 0.0 0 0.0 0.8 3.0 296
18/10/2020 2:50 4.9 92 0.0 0 0.0 0.9 3.1 314
18/10/2020 3:00 5.3 91 0.0 0 0.0 0.9 3.4 356
18/10/2020 3:10 5.2 89 0.0 0 0.0 0.8 2.8 34
18/10/2020 3:20 5.2 90 0.0 0 0.0 2.6 9.2 6
18/10/2020 3:30 5.6 87 0.0 0 0.0 2.8 9.9 8
18/10/2020 3:40 5.6 88 0.0 0 0.0 2.2 8.0 24
18/10/2020 3:50 5.5 88 0.0 0 0.0 1.9 6.7 6
18/10/2020 4:00 5.2 88 0.0 0 0.0 0.9 3.1 49
18/10/2020 4:10 4.3 91 0.0 0 0.0 0.5 1.8 213
18/10/2020 4:20 4.1 92 0.0 0 0.0 0.4 1.5 29
18/10/2020 4:30 3.7 92 0.0 0 0.0 0.6 2.2 130
18/10/2020 4:40 3.3 94 0.0 0 0.0 0.6 2.2 256
18/10/2020 4:50 3.1 95 0.0 0 0.0 0.7 2.6 274
18/10/2020 5:00 3.2 95 0.0 0 0.0 0.2 0.8 270
18/10/2020 5:10 3.0 95 0.0 0 0.0 0.4 1.6 74
18/10/2020 5:20 3.3 96 0.0 0 0.0 0.4 1.3 70
18/10/2020 5:30 2.8 95 0.0 0 0.0 0.8 2.8 238
18/10/2020 5:40 2.9 95 0.0 0 0.0 0.9 3.4 263
18/10/2020 5:50 2.4 95 0.0 0 0.0 1.1 3.9 244
18/10/2020 6:00 2.4 96 0.0 0 0.0 0.2 0.7 216
18/10/2020 6:10 2.3 96 0.0 0 0.0 0.5 1.6 153
18/10/2020 6:20 2.4 96 0.0 0 0.0 0.3 1.2 232
18/10/2020 6:30 2.6 97 0.1 0 0.0 1.2 4.2 273
18/10/2020 6:40 2.7 96 15.1 0 0.0 0.9 3.2 257
18/10/2020 6:50 3.0 96 33.8 412 0.0 1.2 4.3 298
18/10/2020 7:00 3.1 95 57.2 600 0.0 1.1 3.8 245
18/10/2020 7:10 2.9 95 75.8 600 0.0 0.2 0.8 242
18/10/2020 7:20 2.9 95 104.5 600 0.0 0.7 2.5 107
18/10/2020 7:30 3.4 95 134.1 600 0.0 1.1 3.9 112
18/10/2020 7:40 3.8 93 109.5 222 0.0 0.4 1.4 203
18/10/2020 7:50 4.0 91 111.8 0 0.0 0.9 3.1 239
18/10/2020 8:00 4.2 91 129.2 118 0.0 1.6 5.6 263
18/10/2020 8:10 4.6 91 136.2 132 0.0 1.0 3.6 263
18/10/2020 8:20 5.1 90 239.4 512 0.0 0.6 2.2 247
18/10/2020 8:30 6.2 85 345.1 600 0.0 0.7 2.5 132
18/10/2020 8:40 7.0 81 260.6 488 0.0 0.6 2.0 102
18/10/2020 8:50 7.5 79 365.9 600 0.0 0.7 2.6 164
18/10/2020 9:00 7.2 80 419.3 600 0.0 1.4 5.1 233
18/10/2020 9:10 7.4 79 449.8 600 0.0 1.0 3.7 198
18/10/2020 9:20 8.2 78 467.2 600 0.0 1.2 4.1 203
18/10/2020 9:30 8.4 78 508.6 600 0.0 1.7 6.3 224
18/10/2020 9:40 8.3 77 310.4 482 0.0 1.4 5.2 213
18/10/2020 9:50 8.4 77 319.4 548 0.0 1.4 5.1 220
18/10/2020 10:00 8.6 76 381.2 504 0.0 1.3 4.8 220
18/10/2020 10:10 9.2 74 519.0 600 0.0 1.3 4.8 228
18/10/2020 10:20 9.9 71 516.3 600 0.0 1.2 4.4 222
18/10/2020 10:30 10.3 69 601.2 600 0.0 1.6 5.6 243
18/10/2020 10:40 10.7 66 608.8 600 0.0 1.4 5.0 233
18/10/2020 10:50 11.5 64 614.3 600 0.0 1.3 4.7 222
18/10/2020 11:00 12.1 61 633.8 600 0.0 0.9 3.4 258
18/10/2020 11:10 12.8 60 606.6 600 0.0 1.5 5.5 254
18/10/2020 11:20 13.3 58 645.1 600 0.0 1.7 6.2 223
18/10/2020 11:30 13.6 57 648.6 600 0.0 1.5 5.3 222
18/10/2020 11:40 13.8 55 651.3 600 0.0 1.8 6.4 221
18/10/2020 11:50 14.3 52 652.7 600 0.0 1.5 5.3 225
18/10/2020 12:00 15.0 48 652.5 600 0.0 1.6 5.7 227
18/10/2020 12:10 15.3 48 651.9 600 0.0 1.5 5.3 228
18/10/2020 12:20 16.1 45 649.9 600 0.0 1.7 5.9 244
18/10/2020 12:30 16.1 44 638.6 600 0.0 1.5 5.3 206
18/10/2020 12:40 16.4 44 633.1 600 0.0 1.0 3.4 179
18/10/2020 12:50 17.0 42 582.1 600 0.0 1.4 5.1 138
18/10/2020 13:00 17.1 43 587.3 600 0.0 1.0 3.7 194
18/10/2020 13:10 17.4 40 533.3 600 0.0 1.0 3.5 215
18/10/2020 13:20 17.6 37 554.5 600 0.0 0.7 2.7 222
18/10/2020 13:30 17.8 37 475.6 600 0.0 0.8 2.8 206
18/10/2020 13:40 18.1 36 544.7 600 0.0 0.6 2.2 219
18/10/2020 13:50 18.7 35 506.6 600 0.0 0.8 3.0 175
18/10/2020 14:00 18.7 38 469.8 600 0.0 1.2 4.3 194
18/10/2020 14:10 18.7 37 471.1 600 0.0 1.2 4.1 191
18/10/2020 14:20 19.2 33 456.8 600 0.0 1.1 3.9 208
18/10/2020 14:30 19.4 29 437.1 600 0.0 1.0 3.5 235
18/10/2020 14:40 19.5 30 424.7 600 0.0 1.3 4.7 213
18/10/2020 14:50 19.5 28 335.9 582 0.0 1.4 4.9 227
18/10/2020 15:00 19.6 30 375.0 600 0.0 1.3 4.7 203
18/10/2020 15:10 19.9 32 305.7 600 0.0 1.0 3.4 179
18/10/2020 15:20 19.2 34 156.5 222 0.0 1.0 3.5 184
18/10/2020 15:30 19.0 35 128.9 68 0.0 0.9 3.2 192
18/10/2020 15:40 18.7 38 196.7 446 0.0 0.5 1.9 175
18/10/2020 15:50 18.6 41 159.5 388 0.0 1.3 4.7 180
18/10/2020 16:00 18.1 42 98.4 122 0.0 1.2 4.4 206
18/10/2020 16:10 17.8 41 157.7 600 0.0 1.0 3.7 211
18/10/2020 16:20 18.0 39 150.3 600 0.0 0.9 3.3 222
18/10/2020 16:30 18.0 42 92.1 554 0.0 0.7 2.6 238
18/10/2020 16:40 17.1 45 94.9 600 0.0 0.3 1.2 12
18/10/2020 16:50 16.1 51 61.0 600 0.0 0.5 1.9 13
18/10/2020 17:00 14.6 57 28.5 370 0.0 0.4 1.4 164
18/10/2020 17:10 13.5 63 0.0 0 0.0 0.9 3.3 51
18/10/2020 17:20 12.9 64 0.0 0 0.0 1.3 4.8 15
18/10/2020 17:30 12.6 65 0.0 0 0.0 0.6 2.1 360
18/10/2020 17:40 12.8 65 0.0 0 0.0 0.1 0.3 326
18/10/2020 17:50 11.6 72 0.0 0 0.0 1.1 4.1 44
18/10/2020 18:00 11.2 76 0.0 0 0.0 0.9 3.1 46
18/10/2020 18:10 11.8 76 0.0 0 0.0 2.2 8.0 39
18/10/2020 18:20 11.8 74 0.0 0 0.0 2.3 8.1 15
18/10/2020 18:30 11.9 73 0.0 0 0.0 1.4 5.0 45
18/10/2020 18:40 11.6 75 0.0 0 0.0 2.1 7.4 36
18/10/2020 18:50 11.3 75 0.0 0 0.0 1.0 3.7 66
18/10/2020 19:00 11.2 75 0.0 0 0.0 1.0 3.5 31
18/10/2020 19:10 11.3 75 0.0 0 0.0 1.6 5.9 17
18/10/2020 19:20 10.8 76 0.0 0 0.0 1.4 4.9 28
18/10/2020 19:30 10.7 77 0.0 0 0.0 1.7 6.3 22
18/10/2020 19:40 11.0 75 0.0 0 0.0 3.0 10.7 13
18/10/2020 19:50 10.9 76 0.0 0 0.0 2.5 9.1 16
18/10/2020 20:00 10.7 76 0.0 0 0.0 0.8 2.8 54
18/10/2020 20:10 10.5 76 0.0 0 0.0 1.0 3.6 351
18/10/2020 20:20 10.4 77 0.0 0 0.0 1.6 5.7 32
18/10/2020 20:30 10.1 79 0.0 0 0.0 2.1 7.6 17
18/10/2020 20:40 10.1 79 0.0 0 0.0 1.0 3.5 29
18/10/2020 20:50 9.7 80 0.0 0 0.0 1.7 6.0 31
18/10/2020 21:00 9.8 80 0.0 0 0.0 0.9 3.4 47
18/10/2020 21:10 9.2 82 0.0 0 0.0 0.6 2.3 63
18/10/2020 21:20 9.0 83 0.0 0 0.0 0.4 1.5 21
18/10/2020 21:30 9.1 83 0.0 0 0.0 1.0 3.6 14
18/10/2020 21:40 9.1 84 0.0 0 0.0 2.3 8.2 14
18/10/2020 21:50 9.2 83 0.0 0 0.0 1.9 7.0 17
18/10/2020 22:00 8.9 84 0.0 0 0.0 1.2 4.1 18
18/10/2020 22:10 8.8 84 0.0 0 0.0 1.6 5.8 24
18/10/2020 22:20 8.7 84 0.0 0 0.0 1.0 3.4 350
18/10/2020 22:30 8.6 84 0.0 0 0.0 2.3 8.2 7
18/10/2020 22:40 8.8 84 0.0 0 0.0 3.6 12.9 22
18/10/2020 22:50 8.7 84 0.0 0 0.0 2.9 10.3 10
18/10/2020 23:00 8.6 85 0.0 0 0.0 2.1 7.4 19
18/10/2020 23:10 8.3 86 0.0 0 0.0 1.8 6.4 20
18/10/2020 23:20 8.1 86 0.0 0 0.0 0.9 3.3 286
18/10/2020 23:30 7.6 88 0.0 0 0.0 0.7 2.6 98
18/10/2020 23:40 7.4 88 0.0 0 0.0 0.1 0.4 12
18/10/2020 23:50 7.1 89 0.0 0 0.0 0.1 0.3 107
Anterior Página 1 de 1 Siguiente

NOTA: Tipo de datos según el color:
   - Valores diarios o 10 minutos correctos
   - Valores diarios calculados a partir de un número de datos 10 minutos menor que 144 y mayor que 120, o de un número de datos semihorarios menor que 48 y mayor que 40 (caso de las estaciones de INTIA Y Ministerio)
   - Valores diez minutos estimados


Contacto        Enlaces        Aviso legal